sensor_id;sensor_type;location;lat;lon;timestamp;pressure;altitude;pressure_sealevel;temperature;humidity
54936;BME280;40838;50.676;7.838;2023-03-15T00:01:01;97916.22;;;-4.72;100.00
54936;BME280;40838;50.676;7.838;2023-03-15T00:03:29;97921.44;;;-4.72;100.00
54936;BME280;40838;50.676;7.838;2023-03-15T00:05:56;97912.03;;;-4.73;100.00
54936;BME280;40838;50.676;7.838;2023-03-15T00:08:23;97911.63;;;-4.98;100.00
54936;BME280;40838;50.676;7.838;2023-03-15T00:10:51;97916.47;;;-4.95;100.00
54936;BME280;40838;50.676;7.838;2023-03-15T00:13:18;97918.31;;;-4.89;100.00
54936;BME280;40838;50.676;7.838;2023-03-15T00:15:49;97918.50;;;-4.90;100.00
54936;BME280;40838;50.676;7.838;2023-03-15T00:18:17;97924.00;;;-5.00;100.00
54936;BME280;40838;50.676;7.838;2023-03-15T00:20:45;97934.16;;;-5.05;100.00
54936;BME280;40838;50.676;7.838;2023-03-15T00:23:15;97927.19;;;-4.98;100.00
54936;BME280;40838;50.676;7.838;2023-03-15T00:25:43;97924.13;;;-5.08;100.00
54936;BME280;40838;50.676;7.838;2023-03-15T00:28:10;97927.84;;;-4.96;100.00
54936;BME280;40838;50.676;7.838;2023-03-15T00:30:37;97930.63;;;-4.97;100.00
54936;BME280;40838;50.676;7.838;2023-03-15T00:33:05;97934.94;;;-5.04;100.00
54936;BME280;40838;50.676;7.838;2023-03-15T00:35:36;97936.44;;;-4.95;100.00
54936;BME280;40838;50.676;7.838;2023-03-15T00:38:03;97944.72;;;-4.85;100.00
54936;BME280;40838;50.676;7.838;2023-03-15T00:40:30;97945.28;;;-4.90;100.00
54936;BME280;40838;50.676;7.838;2023-03-15T00:42:57;97951.03;;;-4.73;100.00
54936;BME280;40838;50.676;7.838;2023-03-15T00:45:24;97939.78;;;-4.80;100.00
54936;BME280;40838;50.676;7.838;2023-03-15T00:47:52;97949.91;;;-4.64;100.00
54936;BME280;40838;50.676;7.838;2023-03-15T00:50:23;97957.72;;;-4.57;100.00
54936;BME280;40838;50.676;7.838;2023-03-15T00:52:51;97956.91;;;-4.64;100.00
54936;BME280;40838;50.676;7.838;2023-03-15T00:55:19;97965.91;;;-4.38;100.00
54936;BME280;40838;50.676;7.838;2023-03-15T00:57:47;97957.97;;;-4.52;100.00
54936;BME280;40838;50.676;7.838;2023-03-15T01:00:17;97963.19;;;-4.52;100.00
54936;BME280;40838;50.676;7.838;2023-03-15T01:02:47;97961.59;;;-4.53;100.00
54936;BME280;40838;50.676;7.838;2023-03-15T01:05:14;97957.00;;;-4.51;100.00
54936;BME280;40838;50.676;7.838;2023-03-15T01:07:42;97951.06;;;-4.45;100.00
54936;BME280;40838;50.676;7.838;2023-03-15T01:10:10;97954.00;;;-4.76;100.00
54936;BME280;40838;50.676;7.838;2023-03-15T01:12:37;97953.91;;;-4.61;100.00
54936;BME280;40838;50.676;7.838;2023-03-15T01:15:06;97951.88;;;-4.66;100.00
54936;BME280;40838;50.676;7.838;2023-03-15T01:17:36;97955.97;;;-4.56;100.00
54936;BME280;40838;50.676;7.838;2023-03-15T01:20:06;97955.44;;;-4.45;100.00
54936;BME280;40838;50.676;7.838;2023-03-15T01:22:34;97954.75;;;-4.54;100.00
54936;BME280;40838;50.676;7.838;2023-03-15T01:25:02;97953.66;;;-4.45;100.00
54936;BME280;40838;50.676;7.838;2023-03-15T01:27:29;97951.81;;;-4.72;100.00
54936;BME280;40838;50.676;7.838;2023-03-15T01:29:56;97946.22;;;-4.48;100.00
54936;BME280;40838;50.676;7.838;2023-03-15T01:32:23;97944.94;;;-4.30;100.00
54936;BME280;40838;50.676;7.838;2023-03-15T01:34:50;97947.75;;;-4.25;100.00
54936;BME280;40838;50.676;7.838;2023-03-15T01:37:17;97954.09;;;-4.34;100.00
54936;BME280;40838;50.676;7.838;2023-03-15T01:39:49;97954.31;;;-4.36;100.00
54936;BME280;40838;50.676;7.838;2023-03-15T01:42:17;97945.31;;;-4.33;100.00
54936;BME280;40838;50.676;7.838;2023-03-15T01:44:48;97950.69;;;-4.63;100.00
54936;BME280;40838;50.676;7.838;2023-03-15T01:47:16;97943.31;;;-4.31;100.00
54936;BME280;40838;50.676;7.838;2023-03-15T01:49:44;97942.75;;;-4.27;100.00
54936;BME280;40838;50.676;7.838;2023-03-15T01:52:16;97942.34;;;-4.30;100.00
54936;BME280;40838;50.676;7.838;2023-03-15T01:54:59;97944.09;;;-4.37;100.00
54936;BME280;40838;50.676;7.838;2023-03-15T01:57:30;97941.59;;;-4.24;100.00
54936;BME280;40838;50.676;7.838;2023-03-15T02:00:05;97956.16;;;-4.30;100.00
54936;BME280;40838;50.676;7.838;2023-03-15T02:02:46;97955.03;;;-4.14;100.00
54936;BME280;40838;50.676;7.838;2023-03-15T02:05:23;97956.44;;;-3.83;100.00
54936;BME280;40838;50.676;7.838;2023-03-15T02:07:52;97959.06;;;-3.70;100.00
54936;BME280;40838;50.676;7.838;2023-03-15T02:10:26;97959.69;;;-3.68;100.00
54936;BME280;40838;50.676;7.838;2023-03-15T02:13:00;97952.13;;;-3.56;100.00
54936;BME280;40838;50.676;7.838;2023-03-15T02:15:28;97952.44;;;-3.73;100.00
54936;BME280;40838;50.676;7.838;2023-03-15T02:17:58;97955.25;;;-3.74;100.00
54936;BME280;40838;50.676;7.838;2023-03-15T02:20:30;97963.16;;;-3.54;100.00
54936;BME280;40838;50.676;7.838;2023-03-15T02:23:00;97959.16;;;-3.57;100.00
54936;BME280;40838;50.676;7.838;2023-03-15T02:25:35;97961.44;;;-3.82;100.00
54936;BME280;40838;50.676;7.838;2023-03-15T02:28:08;97970.47;;;-3.78;100.00
54936;BME280;40838;50.676;7.838;2023-03-15T02:30:36;97958.34;;;-3.57;100.00
54936;BME280;40838;50.676;7.838;2023-03-15T02:33:07;97967.00;;;-3.43;100.00
54936;BME280;40838;50.676;7.838;2023-03-15T02:35:36;97970.97;;;-3.54;100.00
54936;BME280;40838;50.676;7.838;2023-03-15T02:38:03;97977.81;;;-3.46;100.00
54936;BME280;40838;50.676;7.838;2023-03-15T02:40:30;97987.66;;;-3.42;100.00
54936;BME280;40838;50.676;7.838;2023-03-15T02:43:02;97987.16;;;-3.65;100.00
54936;BME280;40838;50.676;7.838;2023-03-15T02:45:33;97994.56;;;-3.69;100.00
54936;BME280;40838;50.676;7.838;2023-03-15T02:48:02;97990.41;;;-3.91;100.00
54936;BME280;40838;50.676;7.838;2023-03-15T02:50:31;97990.09;;;-3.75;100.00
54936;BME280;40838;50.676;7.838;2023-03-15T02:52:58;97993.06;;;-3.78;100.00
54936;BME280;40838;50.676;7.838;2023-03-15T02:55:28;97989.75;;;-3.65;100.00
54936;BME280;40838;50.676;7.838;2023-03-15T02:57:57;98005.50;;;-3.80;100.00
54936;BME280;40838;50.676;7.838;2023-03-15T03:00:24;98011.25;;;-3.85;100.00
54936;BME280;40838;50.676;7.838;2023-03-15T03:02:53;98001.78;;;-3.99;100.00
54936;BME280;40838;50.676;7.838;2023-03-15T03:05:20;97991.25;;;-3.84;100.00
54936;BME280;40838;50.676;7.838;2023-03-15T03:07:47;98000.59;;;-3.97;100.00
54936;BME280;40838;50.676;7.838;2023-03-15T03:10:17;98001.13;;;-4.08;100.00
54936;BME280;40838;50.676;7.838;2023-03-15T03:12:52;98009.34;;;-4.04;100.00
54936;BME280;40838;50.676;7.838;2023-03-15T03:15:27;98008.25;;;-3.88;100.00
54936;BME280;40838;50.676;7.838;2023-03-15T03:17:59;98003.44;;;-3.91;100.00
54936;BME280;40838;50.676;7.838;2023-03-15T03:20:26;98019.44;;;-3.94;100.00
54936;BME280;40838;50.676;7.838;2023-03-15T03:22:54;98012.13;;;-3.78;100.00
54936;BME280;40838;50.676;7.838;2023-03-15T03:25:21;98011.28;;;-3.78;100.00
54936;BME280;40838;50.676;7.838;2023-03-15T03:27:52;98008.63;;;-3.91;100.00
54936;BME280;40838;50.676;7.838;2023-03-15T03:30:22;98006.56;;;-3.68;100.00
54936;BME280;40838;50.676;7.838;2023-03-15T03:32:50;98015.19;;;-3.96;100.00
54936;BME280;40838;50.676;7.838;2023-03-15T03:35:23;98009.16;;;-4.03;100.00
54936;BME280;40838;50.676;7.838;2023-03-15T03:37:50;98009.28;;;-3.83;100.00
54936;BME280;40838;50.676;7.838;2023-03-15T03:40:22;98003.88;;;-3.81;100.00
54936;BME280;40838;50.676;7.838;2023-03-15T03:42:49;98005.16;;;-3.70;100.00
54936;BME280;40838;50.676;7.838;2023-03-15T03:45:18;98005.31;;;-3.72;100.00
54936;BME280;40838;50.676;7.838;2023-03-15T03:47:47;98007.50;;;-3.76;100.00
54936;BME280;40838;50.676;7.838;2023-03-15T03:50:18;98016.31;;;-3.77;100.00
54936;BME280;40838;50.676;7.838;2023-03-15T03:52:47;98013.91;;;-3.78;100.00
54936;BME280;40838;50.676;7.838;2023-03-15T03:55:19;98015.09;;;-3.81;100.00
54936;BME280;40838;50.676;7.838;2023-03-15T03:57:50;98014.91;;;-3.79;100.00
54936;BME280;40838;50.676;7.838;2023-03-15T04:00:33;98025.00;;;-3.98;100.00
54936;BME280;40838;50.676;7.838;2023-03-15T04:03:00;98012.56;;;-4.02;100.00
54936;BME280;40838;50.676;7.838;2023-03-15T04:05:30;98021.94;;;-4.08;100.00
54936;BME280;40838;50.676;7.838;2023-03-15T04:08:00;98030.34;;;-4.06;100.00
54936;BME280;40838;50.676;7.838;2023-03-15T04:10:33;98031.59;;;-3.67;100.00
54936;BME280;40838;50.676;7.838;2023-03-15T04:13:00;98030.09;;;-3.83;100.00
54936;BME280;40838;50.676;7.838;2023-03-15T04:15:27;98028.84;;;-3.59;100.00
54936;BME280;40838;50.676;7.838;2023-03-15T04:17:56;98038.63;;;-4.24;100.00
54936;BME280;40838;50.676;7.838;2023-03-15T04:20:29;98030.81;;;-3.96;100.00
54936;BME280;40838;50.676;7.838;2023-03-15T04:23:00;98035.44;;;-3.98;100.00
54936;BME280;40838;50.676;7.838;2023-03-15T04:25:40;98026.16;;;-3.72;100.00
54936;BME280;40838;50.676;7.838;2023-03-15T04:28:09;98037.44;;;-3.93;100.00
54936;BME280;40838;50.676;7.838;2023-03-15T04:30:57;98028.53;;;-3.77;100.00
54936;BME280;40838;50.676;7.838;2023-03-15T04:33:42;98042.22;;;-3.97;100.00
54936;BME280;40838;50.676;7.838;2023-03-15T04:36:34;98032.81;;;-3.98;100.00
54936;BME280;40838;50.676;7.838;2023-03-15T04:39:17;98034.34;;;-3.75;100.00
54936;BME280;40838;50.676;7.838;2023-03-15T04:42:10;98041.31;;;-3.82;100.00
54936;BME280;40838;50.676;7.838;2023-03-15T04:44:49;98044.31;;;-4.13;100.00
54936;BME280;40838;50.676;7.838;2023-03-15T04:47:36;98043.78;;;-4.30;100.00
54936;BME280;40838;50.676;7.838;2023-03-15T04:50:27;98041.19;;;-4.02;100.00
54936;BME280;40838;50.676;7.838;2023-03-15T04:53:10;98051.38;;;-4.29;100.00
54936;BME280;40838;50.676;7.838;2023-03-15T04:55:55;98047.28;;;-3.88;100.00
54936;BME280;40838;50.676;7.838;2023-03-15T04:58:37;98050.13;;;-3.83;100.00
54936;BME280;40838;50.676;7.838;2023-03-15T05:01:27;98053.81;;;-3.71;100.00
54936;BME280;40838;50.676;7.838;2023-03-15T05:04:14;98053.56;;;-3.76;100.00
54936;BME280;40838;50.676;7.838;2023-03-15T05:07:01;98056.19;;;-3.76;100.00
54936;BME280;40838;50.676;7.838;2023-03-15T05:09:45;98063.38;;;-3.78;100.00
54936;BME280;40838;50.676;7.838;2023-03-15T05:12:32;98059.47;;;-3.61;100.00
54936;BME280;40838;50.676;7.838;2023-03-15T05:15:22;98065.44;;;-3.67;100.00
54936;BME280;40838;50.676;7.838;2023-03-15T05:17:55;98069.66;;;-3.66;100.00
54936;BME280;40838;50.676;7.838;2023-03-15T05:20:48;98068.66;;;-3.93;100.00
54936;BME280;40838;50.676;7.838;2023-03-15T05:23:28;98070.63;;;-3.74;100.00
54936;BME280;40838;50.676;7.838;2023-03-15T05:26:32;98074.22;;;-3.75;100.00
54936;BME280;40838;50.676;7.838;2023-03-15T05:29:36;98076.75;;;-3.81;100.00
54936;BME280;40838;50.676;7.838;2023-03-15T05:32:34;98077.63;;;-3.74;100.00
54936;BME280;40838;50.676;7.838;2023-03-15T05:35:25;98076.59;;;-3.80;100.00
54936;BME280;40838;50.676;7.838;2023-03-15T05:38:21;98074.22;;;-3.75;100.00
54936;BME280;40838;50.676;7.838;2023-03-15T05:41:20;98089.69;;;-3.66;100.00
54936;BME280;40838;50.676;7.838;2023-03-15T05:44:05;98093.19;;;-4.09;100.00
54936;BME280;40838;50.676;7.838;2023-03-15T05:46:52;98093.72;;;-3.92;100.00
54936;BME280;40838;50.676;7.838;2023-03-15T05:49:43;98099.81;;;-3.78;100.00
54936;BME280;40838;50.676;7.838;2023-03-15T05:52:33;98104.84;;;-3.48;100.00
54936;BME280;40838;50.676;7.838;2023-03-15T05:55:26;98106.03;;;-3.51;100.00
54936;BME280;40838;50.676;7.838;2023-03-15T05:58:11;98105.66;;;-3.41;100.00
54936;BME280;40838;50.676;7.838;2023-03-15T06:01:10;98107.22;;;-3.12;100.00
54936;BME280;40838;50.676;7.838;2023-03-15T06:03:58;98113.06;;;-3.10;100.00
54936;BME280;40838;50.676;7.838;2023-03-15T06:06:29;98121.75;;;-3.31;100.00
54936;BME280;40838;50.676;7.838;2023-03-15T06:08:55;98132.41;;;-3.19;100.00
54936;BME280;40838;50.676;7.838;2023-03-15T06:11:23;98134.16;;;-3.33;100.00
54936;BME280;40838;50.676;7.838;2023-03-15T06:13:51;98144.72;;;-3.69;100.00
54936;BME280;40838;50.676;7.838;2023-03-15T06:16:33;98141.16;;;-3.68;100.00
54936;BME280;40838;50.676;7.838;2023-03-15T06:19:04;98141.56;;;-3.37;100.00
54936;BME280;40838;50.676;7.838;2023-03-15T06:21:30;98149.16;;;-3.42;100.00
54936;BME280;40838;50.676;7.838;2023-03-15T06:23:59;98149.66;;;-3.53;100.00
54936;BME280;40838;50.676;7.838;2023-03-15T06:26:26;98149.53;;;-3.45;100.00
54936;BME280;40838;50.676;7.838;2023-03-15T06:28:58;98150.59;;;-2.98;100.00
54936;BME280;40838;50.676;7.838;2023-03-15T06:31:25;98154.66;;;-2.82;100.00
54936;BME280;40838;50.676;7.838;2023-03-15T06:34:00;98150.53;;;-2.56;100.00
54936;BME280;40838;50.676;7.838;2023-03-15T06:36:28;98154.63;;;-2.89;100.00
54936;BME280;40838;50.676;7.838;2023-03-15T06:38:56;98159.28;;;-2.84;100.00
54936;BME280;40838;50.676;7.838;2023-03-15T06:41:23;98166.19;;;-2.63;100.00
54936;BME280;40838;50.676;7.838;2023-03-15T06:43:58;98169.78;;;-2.64;100.00
54936;BME280;40838;50.676;7.838;2023-03-15T06:46:25;98168.56;;;-2.68;100.00
54936;BME280;40838;50.676;7.838;2023-03-15T06:48:54;98170.56;;;-2.70;100.00
54936;BME280;40838;50.676;7.838;2023-03-15T06:51:22;98177.00;;;-3.08;100.00
54936;BME280;40838;50.676;7.838;2023-03-15T06:53:50;98185.09;;;-3.31;100.00
54936;BME280;40838;50.676;7.838;2023-03-15T06:56:18;98184.09;;;-3.30;100.00
54936;BME280;40838;50.676;7.838;2023-03-15T06:58:45;98186.31;;;-3.27;100.00
54936;BME280;40838;50.676;7.838;2023-03-15T07:01:12;98185.97;;;-3.17;100.00
54936;BME280;40838;50.676;7.838;2023-03-15T07:03:39;98192.03;;;-3.10;100.00
54936;BME280;40838;50.676;7.838;2023-03-15T07:06:07;98199.03;;;-3.45;100.00
54936;BME280;40838;50.676;7.838;2023-03-15T07:08:34;98201.44;;;-3.09;100.00
54936;BME280;40838;50.676;7.838;2023-03-15T07:11:03;98202.84;;;-2.78;100.00
54936;BME280;40838;50.676;7.838;2023-03-15T07:13:30;98212.88;;;-2.75;100.00
54936;BME280;40838;50.676;7.838;2023-03-15T07:15:57;98220.31;;;-2.72;100.00
54936;BME280;40838;50.676;7.838;2023-03-15T07:18:24;98226.38;;;-2.99;100.00
54936;BME280;40838;50.676;7.838;2023-03-15T07:20:55;98235.59;;;-2.97;100.00
54936;BME280;40838;50.676;7.838;2023-03-15T07:23:22;98232.66;;;-3.22;100.00
54936;BME280;40838;50.676;7.838;2023-03-15T07:25:48;98238.16;;;-3.10;100.00
54936;BME280;40838;50.676;7.838;2023-03-15T07:28:18;98242.34;;;-2.81;100.00
54936;BME280;40838;50.676;7.838;2023-03-15T07:30:52;98244.47;;;-3.19;100.00
54936;BME280;40838;50.676;7.838;2023-03-15T07:33:21;98250.81;;;-3.29;100.00
54936;BME280;40838;50.676;7.838;2023-03-15T07:35:48;98256.97;;;-3.08;100.00
54936;BME280;40838;50.676;7.838;2023-03-15T07:38:15;98255.56;;;-3.11;100.00
54936;BME280;40838;50.676;7.838;2023-03-15T07:40:42;98270.09;;;-3.23;100.00
54936;BME280;40838;50.676;7.838;2023-03-15T07:43:09;98272.34;;;-3.20;100.00
54936;BME280;40838;50.676;7.838;2023-03-15T07:45:37;98265.38;;;-3.62;100.00
54936;BME280;40838;50.676;7.838;2023-03-15T07:48:05;98277.00;;;-3.15;100.00
54936;BME280;40838;50.676;7.838;2023-03-15T07:50:31;98280.53;;;-3.51;100.00
54936;BME280;40838;50.676;7.838;2023-03-15T07:52:58;98283.88;;;-3.57;100.00
54936;BME280;40838;50.676;7.838;2023-03-15T07:55:26;98290.56;;;-2.98;100.00
54936;BME280;40838;50.676;7.838;2023-03-15T07:57:53;98291.78;;;-2.94;100.00
54936;BME280;40838;50.676;7.838;2023-03-15T08:00:20;98302.59;;;-2.97;100.00
54936;BME280;40838;50.676;7.838;2023-03-15T08:02:48;98309.94;;;-3.29;100.00
54936;BME280;40838;50.676;7.838;2023-03-15T08:05:16;98305.84;;;-3.17;100.00
54936;BME280;40838;50.676;7.838;2023-03-15T08:07:43;98320.72;;;-3.11;100.00
54936;BME280;40838;50.676;7.838;2023-03-15T08:10:11;98322.09;;;-3.58;100.00
54936;BME280;40838;50.676;7.838;2023-03-15T08:12:39;98316.41;;;-2.97;100.00
54936;BME280;40838;50.676;7.838;2023-03-15T08:15:09;98322.78;;;-2.78;100.00
54936;BME280;40838;50.676;7.838;2023-03-15T08:17:37;98325.25;;;-2.98;100.00
54936;BME280;40838;50.676;7.838;2023-03-15T08:20:08;98329.53;;;-2.55;100.00
54936;BME280;40838;50.676;7.838;2023-03-15T08:22:36;98328.09;;;-1.62;100.00
54936;BME280;40838;50.676;7.838;2023-03-15T08:25:04;98340.06;;;-2.36;100.00
54936;BME280;40838;50.676;7.838;2023-03-15T08:27:31;98334.91;;;-1.74;100.00
54936;BME280;40838;50.676;7.838;2023-03-15T08:29:58;98341.22;;;-1.15;100.00
54936;BME280;40838;50.676;7.838;2023-03-15T08:32:26;98347.25;;;-1.35;100.00
54936;BME280;40838;50.676;7.838;2023-03-15T08:34:52;98354.00;;;-2.22;100.00
54936;BME280;40838;50.676;7.838;2023-03-15T08:37:21;98361.63;;;-2.20;100.00
54936;BME280;40838;50.676;7.838;2023-03-15T08:39:48;98367.50;;;-1.63;100.00
54936;BME280;40838;50.676;7.838;2023-03-15T08:42:22;98375.03;;;-1.88;100.00
54936;BME280;40838;50.676;7.838;2023-03-15T08:44:49;98369.94;;;-1.35;100.00
54936;BME280;40838;50.676;7.838;2023-03-15T08:47:17;98369.78;;;-0.74;100.00
54936;BME280;40838;50.676;7.838;2023-03-15T08:49:44;98373.41;;;-0.88;100.00
54936;BME280;40838;50.676;7.838;2023-03-15T08:52:11;98388.25;;;-1.42;100.00
54936;BME280;40838;50.676;7.838;2023-03-15T08:54:43;98383.34;;;-1.65;100.00
54936;BME280;40838;50.676;7.838;2023-03-15T08:57:10;98397.16;;;-1.84;100.00
54936;BME280;40838;50.676;7.838;2023-03-15T08:59:37;98402.03;;;-1.68;100.00
54936;BME280;40838;50.676;7.838;2023-03-15T09:02:04;98391.25;;;-1.45;100.00
54936;BME280;40838;50.676;7.838;2023-03-15T09:04:31;98400.69;;;-1.44;100.00
54936;BME280;40838;50.676;7.838;2023-03-15T09:06:58;98402.91;;;-1.48;100.00
54936;BME280;40838;50.676;7.838;2023-03-15T09:09:28;98402.19;;;-1.76;100.00
54936;BME280;40838;50.676;7.838;2023-03-15T09:11:57;98400.69;;;-1.44;100.00
54936;BME280;40838;50.676;7.838;2023-03-15T09:14:23;98410.34;;;-1.45;100.00
54936;BME280;40838;50.676;7.838;2023-03-15T09:16:50;98412.84;;;-1.78;100.00
54936;BME280;40838;50.676;7.838;2023-03-15T09:19:17;98423.75;;;-2.09;100.00
54936;BME280;40838;50.676;7.838;2023-03-15T09:21:44;98416.25;;;-1.84;100.00
54936;BME280;40838;50.676;7.838;2023-03-15T09:24:11;98419.88;;;-1.78;100.00
54936;BME280;40838;50.676;7.838;2023-03-15T09:26:38;98415.88;;;-0.80;100.00
54936;BME280;40838;50.676;7.838;2023-03-15T09:29:06;98415.59;;;0.02;100.00
54936;BME280;40838;50.676;7.838;2023-03-15T09:31:34;98423.72;;;-0.66;100.00
54936;BME280;40838;50.676;7.838;2023-03-15T09:34:00;98428.97;;;-1.00;100.00
54936;BME280;40838;50.676;7.838;2023-03-15T09:36:27;98421.31;;;-0.48;100.00
54936;BME280;40838;50.676;7.838;2023-03-15T09:38:54;98427.53;;;-0.89;100.00
54936;BME280;40838;50.676;7.838;2023-03-15T09:41:36;98428.56;;;-0.50;100.00
54936;BME280;40838;50.676;7.838;2023-03-15T09:44:15;98431.91;;;0.10;100.00
54936;BME280;40838;50.676;7.838;2023-03-15T09:46:55;98429.13;;;-0.28;100.00
54936;BME280;40838;50.676;7.838;2023-03-15T09:49:33;98439.66;;;0.44;100.00
54936;BME280;40838;50.676;7.838;2023-03-15T09:52:15;98444.84;;;-0.28;100.00
54936;BME280;40838;50.676;7.838;2023-03-15T09:54:50;98451.72;;;-0.60;100.00
54936;BME280;40838;50.676;7.838;2023-03-15T09:57:21;98463.00;;;-0.46;100.00
54936;BME280;40838;50.676;7.838;2023-03-15T09:59:51;98458.28;;;0.16;100.00
54936;BME280;40838;50.676;7.838;2023-03-15T10:02:23;98466.13;;;0.29;100.00
54936;BME280;40838;50.676;7.838;2023-03-15T10:04:53;98462.75;;;0.02;100.00
54936;BME280;40838;50.676;7.838;2023-03-15T10:07:22;98471.47;;;-0.44;100.00
54936;BME280;40838;50.676;7.838;2023-03-15T10:09:49;98474.06;;;-0.64;100.00
54936;BME280;40838;50.676;7.838;2023-03-15T10:12:20;98474.66;;;-0.69;100.00
54936;BME280;40838;50.676;7.838;2023-03-15T10:15:07;98467.81;;;0.03;100.00
54936;BME280;40838;50.676;7.838;2023-03-15T10:17:47;98476.28;;;0.57;100.00
54936;BME280;40838;50.676;7.838;2023-03-15T10:20:20;98467.47;;;0.90;100.00
54936;BME280;40838;50.676;7.838;2023-03-15T10:22:54;98459.19;;;1.49;100.00
54936;BME280;40838;50.676;7.838;2023-03-15T10:25:24;98454.84;;;2.24;100.00
54936;BME280;40838;50.676;7.838;2023-03-15T10:27:56;98450.91;;;3.12;100.00
54936;BME280;40838;50.676;7.838;2023-03-15T10:30:28;98435.16;;;4.29;100.00
54936;BME280;40838;50.676;7.838;2023-03-15T10:32:57;98447.44;;;3.76;100.00
54936;BME280;40838;50.676;7.838;2023-03-15T10:35:29;98442.66;;;4.49;100.00
54936;BME280;40838;50.676;7.838;2023-03-15T10:37:56;98457.47;;;2.42;100.00
54936;BME280;40838;50.676;7.838;2023-03-15T10:40:41;98463.09;;;1.65;100.00
54936;BME280;40838;50.676;7.838;2023-03-15T10:43:12;98459.50;;;0.71;100.00
54936;BME280;40838;50.676;7.838;2023-03-15T10:45:41;98465.06;;;1.20;100.00
54936;BME280;40838;50.676;7.838;2023-03-15T10:48:11;98466.50;;;0.26;100.00
54936;BME280;40838;50.676;7.838;2023-03-15T10:50:38;98468.56;;;0.24;100.00
54936;BME280;40838;50.676;7.838;2023-03-15T10:53:09;98467.63;;;-0.55;100.00
54936;BME280;40838;50.676;7.838;2023-03-15T10:55:41;98473.16;;;-1.18;100.00
54936;BME280;40838;50.676;7.838;2023-03-15T10:58:28;98471.22;;;-0.36;100.00
54936;BME280;40838;50.676;7.838;2023-03-15T11:01:02;98475.06;;;-0.12;100.00
54936;BME280;40838;50.676;7.838;2023-03-15T11:03:32;98480.44;;;0.20;100.00
54936;BME280;40838;50.676;7.838;2023-03-15T11:06:17;98480.50;;;-0.40;100.00
54936;BME280;40838;50.676;7.838;2023-03-15T11:08:44;98470.03;;;-0.20;100.00
54936;BME280;40838;50.676;7.838;2023-03-15T11:11:11;98478.25;;;0.23;100.00
54936;BME280;40838;50.676;7.838;2023-03-15T11:13:40;98478.00;;;0.31;100.00
54936;BME280;40838;50.676;7.838;2023-03-15T11:16:21;98482.06;;;0.21;100.00
54936;BME280;40838;50.676;7.838;2023-03-15T11:18:51;98481.06;;;0.22;100.00
54936;BME280;40838;50.676;7.838;2023-03-15T11:21:24;98483.28;;;-0.15;100.00
54936;BME280;40838;50.676;7.838;2023-03-15T11:23:54;98491.75;;;-0.13;100.00
54936;BME280;40838;50.676;7.838;2023-03-15T11:26:24;98486.41;;;2.42;100.00
54936;BME280;40838;50.676;7.838;2023-03-15T11:28:52;98491.50;;;2.74;100.00
54936;BME280;40838;50.676;7.838;2023-03-15T11:31:25;98500.47;;;0.66;100.00
54936;BME280;40838;50.676;7.838;2023-03-15T11:33:55;98500.91;;;0.56;100.00
54936;BME280;40838;50.676;7.838;2023-03-15T11:36:26;98508.91;;;-0.44;100.00
54936;BME280;40838;50.676;7.838;2023-03-15T11:38:59;98508.69;;;-0.42;100.00
54936;BME280;40838;50.676;7.838;2023-03-15T11:41:32;98511.91;;;-0.14;100.00
54936;BME280;40838;50.676;7.838;2023-03-15T11:44:07;98505.25;;;1.45;100.00
54936;BME280;40838;50.676;7.838;2023-03-15T11:46:42;98512.06;;;1.53;100.00
54936;BME280;40838;50.676;7.838;2023-03-15T11:49:14;98514.00;;;1.01;100.00
54936;BME280;40838;50.676;7.838;2023-03-15T11:51:43;98514.41;;;1.93;100.00
54936;BME280;40838;50.676;7.838;2023-03-15T11:54:12;98515.19;;;2.55;100.00
54936;BME280;40838;50.676;7.838;2023-03-15T11:56:52;98521.94;;;3.00;100.00
54936;BME280;40838;50.676;7.838;2023-03-15T11:59:24;98524.03;;;2.79;100.00
54936;BME280;40838;50.676;7.838;2023-03-15T12:01:55;98521.75;;;2.65;100.00
54936;BME280;40838;50.676;7.838;2023-03-15T12:07:27;98538.03;;;0.46;100.00
54936;BME280;40838;50.676;7.838;2023-03-15T12:09:57;98545.53;;;0.23;100.00
54936;BME280;40838;50.676;7.838;2023-03-15T12:12:45;98539.91;;;1.29;100.00
54936;BME280;40838;50.676;7.838;2023-03-15T12:15:42;98538.56;;;1.13;100.00
54936;BME280;40838;50.676;7.838;2023-03-15T12:18:19;98541.13;;;0.88;100.00
54936;BME280;40838;50.676;7.838;2023-03-15T12:20:56;98542.75;;;1.84;100.00
54936;BME280;40838;50.676;7.838;2023-03-15T12:23:36;98536.31;;;2.05;100.00
54936;BME280;40838;50.676;7.838;2023-03-15T12:26:06;98534.66;;;2.54;100.00
54936;BME280;40838;50.676;7.838;2023-03-15T12:28:36;98533.09;;;2.65;100.00
54936;BME280;40838;50.676;7.838;2023-03-15T12:31:06;98535.53;;;2.48;100.00
54936;BME280;40838;50.676;7.838;2023-03-15T12:33:46;98532.25;;;2.83;99.91
54936;BME280;40838;50.676;7.838;2023-03-15T12:36:26;98525.91;;;3.21;100.00
54936;BME280;40838;50.676;7.838;2023-03-15T12:39:02;98534.66;;;2.54;100.00
54936;BME280;40838;50.676;7.838;2023-03-15T12:41:45;98529.66;;;2.65;100.00
54936;BME280;40838;50.676;7.838;2023-03-15T12:44:24;98535.66;;;1.60;96.58
54936;BME280;40838;50.676;7.838;2023-03-15T12:46:53;98533.03;;;1.60;97.29
54936;BME280;40838;50.676;7.838;2023-03-15T12:49:33;98534.00;;;1.90;96.45
54936;BME280;40838;50.676;7.838;2023-03-15T12:52:02;98540.78;;;1.48;100.00
54936;BME280;40838;50.676;7.838;2023-03-15T12:54:36;98543.28;;;1.93;97.82
54936;BME280;40838;50.676;7.838;2023-03-15T12:57:05;98550.56;;;1.66;97.79
54936;BME280;40838;50.676;7.838;2023-03-15T12:59:39;98539.63;;;2.19;100.00
54936;BME280;40838;50.676;7.838;2023-03-15T13:02:24;98538.41;;;1.97;99.75
54936;BME280;40838;50.676;7.838;2023-03-15T13:05:11;98540.25;;;3.06;98.25
54936;BME280;40838;50.676;7.838;2023-03-15T13:07:51;98545.81;;;2.87;91.25
54936;BME280;40838;50.676;7.838;2023-03-15T13:10:31;98550.72;;;2.46;96.92
54936;BME280;40838;50.676;7.838;2023-03-15T13:13:06;98539.44;;;2.39;98.67
54936;BME280;40838;50.676;7.838;2023-03-15T13:15:36;98539.41;;;1.95;90.83
54936;BME280;40838;50.676;7.838;2023-03-15T13:18:11;98538.22;;;1.41;90.74
54936;BME280;40838;50.676;7.838;2023-03-15T13:20:51;98540.28;;;1.64;95.79
54936;BME280;40838;50.676;7.838;2023-03-15T13:23:26;98533.81;;;1.35;94.09